createdAt,value
2017-03-06T00:00:04.261Z,0
2017-03-06T00:01:05.436Z,0
2017-03-06T00:02:06.673Z,0
2017-03-06T00:03:07.907Z,0
2017-03-06T00:04:09.159Z,0
2017-03-06T00:05:10.371Z,0
2017-03-06T00:06:11.702Z,0
2017-03-06T00:07:13.033Z,0
2017-03-06T00:08:14.277Z,0
2017-03-06T00:09:15.505Z,0
2017-03-06T00:10:16.820Z,0
2017-03-06T00:11:17.992Z,0
2017-03-06T00:12:19.289Z,0
2017-03-06T00:13:20.568Z,0
2017-03-06T00:14:21.808Z,0
2017-03-06T00:15:23.096Z,0
2017-03-06T00:16:24.333Z,0
2017-03-06T00:17:25.587Z,0
2017-03-06T00:18:26.877Z,0
2017-03-06T00:19:28.166Z,0
2017-03-06T00:20:29.462Z,0
2017-03-06T00:21:30.693Z,0
2017-03-06T00:22:31.937Z,0
2017-03-06T00:23:33.182Z,0
2017-03-06T00:24:34.432Z,0
2017-03-06T00:25:35.686Z,0
2017-03-06T00:26:36.929Z,0
2017-03-06T00:27:38.280Z,0
2017-03-06T00:28:39.515Z,0
2017-03-06T00:29:40.705Z,0
2017-03-06T00:30:41.961Z,0
2017-03-06T00:31:43.173Z,0
2017-03-06T00:32:44.427Z,0
2017-03-06T00:33:45.685Z,0
2017-03-06T00:34:46.921Z,0
2017-03-06T00:35:48.166Z,0
2017-03-06T00:36:49.437Z,0
2017-03-06T00:37:50.668Z,0
2017-03-06T00:38:51.907Z,0
2017-03-06T00:39:53.180Z,0
2017-03-06T00:40:54.443Z,0
2017-03-06T00:41:55.683Z,0
2017-03-06T00:42:56.931Z,0
2017-03-06T00:43:58.174Z,0
2017-03-06T00:44:59.435Z,0
2017-03-06T00:46:00.749Z,0
2017-03-06T00:47:01.995Z,0
2017-03-06T00:48:03.234Z,0
2017-03-06T00:49:04.509Z,0
2017-03-06T00:50:05.748Z,0
2017-03-06T00:51:07.022Z,0
2017-03-06T00:52:08.327Z,0
2017-03-06T00:53:09.646Z,0
2017-03-06T00:54:10.924Z,0
2017-03-06T00:55:12.163Z,0
2017-03-06T00:56:13.401Z,0
2017-03-06T00:57:14.640Z,0
2017-03-06T00:58:15.874Z,0
2017-03-06T00:59:17.120Z,0
2017-03-06T01:00:18.391Z,0
2017-03-06T01:01:19.626Z,0
2017-03-06T01:02:20.868Z,0
2017-03-06T01:03:22.103Z,0
2017-03-06T01:04:23.373Z,0
2017-03-06T01:05:24.634Z,0
2017-03-06T01:06:25.863Z,0
2017-03-06T01:07:27.201Z,0
2017-03-06T01:08:28.439Z,0
2017-03-06T01:09:29.682Z,0
2017-03-06T01:10:30.921Z,0
2017-03-06T01:11:32.184Z,0
2017-03-06T01:12:33.449Z,0
2017-03-06T01:13:34.668Z,0
2017-03-06T01:14:35.907Z,0
2017-03-06T01:15:37.148Z,0
2017-03-06T01:16:38.392Z,0
2017-03-06T01:17:39.724Z,0
2017-03-06T01:18:41.011Z,0
2017-03-06T01:19:42.262Z,0
2017-03-06T01:20:43.505Z,0
2017-03-06T01:21:44.752Z,0
2017-03-06T01:22:45.981Z,0
2017-03-06T01:23:47.220Z,0
2017-03-06T01:24:48.452Z,0
2017-03-06T01:25:49.688Z,0
2017-03-06T01:26:50.930Z,0
2017-03-06T01:27:52.166Z,0
2017-03-06T01:28:53.394Z,0
2017-03-06T01:29:54.643Z,0
2017-03-06T01:30:55.891Z,0
2017-03-06T01:31:57.205Z,0
2017-03-06T01:32:58.512Z,0
2017-03-06T01:33:59.752Z,0
2017-03-06T01:35:00.990Z,0
2017-03-06T01:36:02.229Z,0
2017-03-06T01:37:03.483Z,0
2017-03-06T01:38:04.725Z,0
2017-03-06T01:39:06.082Z,0
2017-03-06T01:40:07.313Z,0
2017-03-06T01:41:08.574Z,0
2017-03-06T01:42:09.855Z,0
2017-03-06T01:43:11.184Z,0
2017-03-06T01:44:12.413Z,0
2017-03-06T01:45:13.666Z,0
2017-03-06T01:46:15.061Z,0
2017-03-06T01:47:16.283Z,0
2017-03-06T01:48:17.509Z,0
2017-03-06T01:49:18.748Z,0
2017-03-06T01:50:20.028Z,0
2017-03-06T01:51:21.268Z,0
2017-03-06T01:52:22.519Z,0
2017-03-06T01:53:23.784Z,0
2017-03-06T01:54:24.991Z,0
2017-03-06T01:55:26.236Z,0
2017-03-06T01:56:27.461Z,0
2017-03-06T01:57:28.737Z,0
2017-03-06T01:58:29.959Z,0
2017-03-06T01:59:31.197Z,0
2017-03-06T02:00:32.433Z,0
2017-03-06T02:01:33.689Z,0
2017-03-06T02:02:34.952Z,0
2017-03-06T02:03:36.237Z,0
2017-03-06T02:04:37.472Z,0
2017-03-06T02:05:38.710Z,0
2017-03-06T02:06:39.951Z,0
2017-03-06T02:07:41.183Z,0
2017-03-06T02:08:42.414Z,0
2017-03-06T02:09:43.677Z,0
2017-03-06T02:10:44.938Z,0
2017-03-06T02:11:46.200Z,0
2017-03-06T02:12:47.450Z,0
2017-03-06T02:13:48.685Z,0
2017-03-06T02:14:49.956Z,0
2017-03-06T02:15:51.230Z,0
2017-03-06T02:16:52.473Z,0
2017-03-06T02:17:53.705Z,0
2017-03-06T02:18:55.062Z,0
2017-03-06T02:19:56.315Z,0
2017-03-06T02:20:57.624Z,0
2017-03-06T02:21:58.909Z,0
2017-03-06T02:23:00.236Z,0
2017-03-06T02:24:01.444Z,0
2017-03-06T02:25:02.892Z,0
2017-03-06T02:26:04.347Z,0
2017-03-06T02:27:05.721Z,0
2017-03-06T02:28:13.559Z,0
2017-03-06T02:29:15.004Z,0
2017-03-06T02:30:16.268Z,0
2017-03-06T02:31:18.051Z,0
2017-03-06T02:32:19.652Z,0
2017-03-06T02:33:21.404Z,0
2017-03-06T02:34:22.993Z,0
2017-03-06T02:35:24.683Z,0
2017-03-06T02:36:26.185Z,0
2017-03-06T02:37:27.704Z,0
2017-03-06T02:38:29.026Z,0
2017-03-06T02:39:30.452Z,0
2017-03-06T02:40:31.998Z,0
2017-03-06T02:41:33.653Z,0
2017-03-06T02:42:35.093Z,0
2017-03-06T02:43:36.701Z,0
2017-03-06T02:44:38.832Z,0
2017-03-06T02:45:40.205Z,0
2017-03-06T02:46:41.633Z,0
2017-03-06T02:47:43.111Z,0
2017-03-06T02:48:44.947Z,0
2017-03-06T02:49:46.663Z,0
2017-03-06T02:50:48.044Z,0
2017-03-06T02:51:49.600Z,0
2017-03-06T02:52:51.441Z,0
2017-03-06T02:53:52.867Z,0
2017-03-06T02:54:54.206Z,0
2017-03-06T02:55:55.730Z,0
2017-03-06T02:56:57.093Z,0
2017-03-06T02:57:58.585Z,0
2017-03-06T02:59:00.386Z,0
2017-03-06T03:00:02.604Z,0
2017-03-06T03:01:06.931Z,0
2017-03-06T03:02:09.485Z,0
2017-03-06T03:03:13.269Z,0
2017-03-06T03:04:15.157Z,0
2017-03-06T03:05:17.192Z,0
2017-03-06T03:06:19.124Z,0
2017-03-06T03:07:20.996Z,0
2017-03-06T03:08:22.584Z,0
2017-03-06T03:09:24.722Z,0
2017-03-06T03:10:26.279Z,0
2017-03-06T03:11:27.850Z,0
2017-03-06T03:12:29.351Z,0
2017-03-06T03:13:31.838Z,0
2017-03-06T03:14:33.623Z,0
2017-03-06T03:15:35.670Z,0
2017-03-06T03:16:37.555Z,0
2017-03-06T03:17:39.285Z,0
2017-03-06T03:18:40.791Z,0
2017-03-06T03:19:42.176Z,0
2017-03-06T03:20:43.480Z,0
2017-03-06T03:21:44.912Z,0
2017-03-06T03:22:46.663Z,0
2017-03-06T03:23:48.046Z,0
2017-03-06T03:24:49.528Z,0
2017-03-06T03:25:51.765Z,0
2017-03-06T03:26:54.904Z,0
2017-03-06T03:27:56.923Z,0
2017-03-06T03:28:58.570Z,0
2017-03-06T03:30:00.390Z,0
2017-03-06T03:31:01.788Z,0
2017-03-06T03:32:03.285Z,0
2017-03-06T03:33:04.766Z,0
2017-03-06T03:34:06.358Z,0
2017-03-06T03:35:08.278Z,0
2017-03-06T03:36:09.957Z,0
2017-03-06T03:37:11.210Z,0
2017-03-06T03:38:12.862Z,0
2017-03-06T03:39:14.816Z,0
2017-03-06T03:40:17.396Z,0
2017-03-06T03:41:19.638Z,0
2017-03-06T03:42:21.229Z,0
2017-03-06T03:43:23.849Z,0
2017-03-06T03:44:25.773Z,0
2017-03-06T03:45:27.866Z,0
2017-03-06T03:46:29.399Z,0
2017-03-06T03:47:45.835Z,0
2017-03-06T03:48:47.708Z,0
2017-03-06T03:49:49.891Z,0
2017-03-06T03:50:51.758Z,0
2017-03-06T03:51:53.221Z,0
2017-03-06T03:52:54.613Z,0
2017-03-06T03:53:56.073Z,0
2017-03-06T03:54:58.032Z,0
2017-03-06T03:56:00.133Z,0
2017-03-06T03:57:02.226Z,0
2017-03-06T03:58:04.954Z,0
2017-03-06T03:59:07.569Z,0
2017-03-06T04:00:09.375Z,0
2017-03-06T04:01:11.132Z,0
2017-03-06T04:02:14.880Z,0
2017-03-06T04:03:16.519Z,0
2017-03-06T04:04:18.246Z,0
2017-03-06T04:05:19.768Z,0
2017-03-06T04:06:23.132Z,0
2017-03-06T04:07:25.195Z,0
2017-03-06T04:08:26.700Z,0
2017-03-06T04:09:28.214Z,0
2017-03-06T04:10:29.814Z,0
2017-03-06T04:11:31.356Z,0
2017-03-06T04:12:34.994Z,0
2017-03-06T04:13:36.478Z,0
2017-03-06T04:14:39.141Z,0
2017-03-06T04:15:41.194Z,0
2017-03-06T04:16:43.617Z,0
2017-03-06T04:17:45.699Z,0
2017-03-06T04:18:49.150Z,0
2017-03-06T04:19:55.467Z,0
2017-03-06T04:20:58.436Z,0
2017-03-06T04:23:12.700Z,0
2017-03-06T04:24:14.649Z,0
2017-03-06T04:25:17.448Z,0
2017-03-06T04:26:20.885Z,0
2017-03-06T04:27:23.055Z,0
2017-03-06T04:28:45.717Z,0
2017-03-06T04:29:48.828Z,0
2017-03-06T04:30:51.398Z,0
2017-03-06T04:31:53.484Z,0
2017-03-06T04:32:57.324Z,0
2017-03-06T04:33:59.803Z,0
2017-03-06T04:35:02.068Z,0
2017-03-06T04:36:03.609Z,0
2017-03-06T04:37:05.424Z,0
2017-03-06T04:38:07.288Z,0
2017-03-06T04:39:10.688Z,0
2017-03-06T04:40:12.714Z,0
2017-03-06T04:41:16.257Z,0
2017-03-06T04:42:18.068Z,0
2017-03-06T04:43:19.480Z,0
2017-03-06T04:44:21.302Z,0
2017-03-06T04:45:53.299Z,0
2017-03-06T04:46:55.268Z,0
2017-03-06T04:47:57.153Z,0
2017-03-06T04:48:58.625Z,0
2017-03-06T04:50:01.167Z,0
2017-03-06T04:51:02.891Z,0
2017-03-06T04:52:05.086Z,0
2017-03-06T04:53:07.041Z,0
2017-03-06T04:54:12.012Z,0
2017-03-06T04:55:15.250Z,0
2017-03-06T04:56:47.597Z,0
2017-03-06T04:57:50.261Z,0
2017-03-06T04:58:52.161Z,0
2017-03-06T04:59:53.869Z,0
2017-03-06T05:00:57.022Z,0
2017-03-06T05:02:00.301Z,0
2017-03-06T05:03:02.448Z,0
2017-03-06T05:04:04.809Z,0
2017-03-06T05:05:15.701Z,0
2017-03-06T05:06:17.296Z,0
2017-03-06T05:07:18.750Z,0
2017-03-06T05:08:20.211Z,0
2017-03-06T05:09:23.971Z,0
2017-03-06T05:10:30.128Z,0
2017-03-06T05:11:33.396Z,0
2017-03-06T05:12:51.123Z,0
2017-03-06T05:13:53.080Z,0
2017-03-06T05:14:54.575Z,0
2017-03-06T05:15:56.260Z,0
2017-03-06T05:16:58.984Z,0
2017-03-06T05:18:02.841Z,0
2017-03-06T05:19:04.962Z,0
2017-03-06T05:21:12.225Z,0
2017-03-06T05:22:44.889Z,0
2017-03-06T05:23:48.492Z,0
2017-03-06T05:24:51.146Z,0
2017-03-06T05:25:53.819Z,0
2017-03-06T05:26:56.856Z,0
2017-03-06T05:28:13.611Z,0
2017-03-06T05:29:17.603Z,0
2017-03-06T05:30:20.062Z,0
2017-03-06T05:31:22.958Z,0
2017-03-06T05:32:25.664Z,0
2017-03-06T05:33:27.377Z,0
2017-03-06T05:34:32.104Z,4
2017-03-06T05:35:34.710Z,4
2017-03-06T05:36:38.999Z,0
2017-03-06T05:37:41.372Z,4
2017-03-06T05:39:13.375Z,4
2017-03-06T05:40:16.458Z,8
2017-03-06T05:41:18.105Z,8
2017-03-06T05:42:20.046Z,4
2017-03-06T05:43:21.652Z,8
2017-03-06T05:44:53.298Z,8
2017-03-06T05:45:57.773Z,8
2017-03-06T05:47:01.826Z,8
2017-03-06T05:48:04.206Z,8
2017-03-06T05:49:06.416Z,12
2017-03-06T05:50:08.062Z,16
2017-03-06T05:51:09.763Z,16
2017-03-06T05:52:11.009Z,16
2017-03-06T05:53:14.298Z,20
2017-03-06T05:54:17.265Z,24
2017-03-06T05:55:34.310Z,32
2017-03-06T05:56:36.791Z,40
2017-03-06T05:58:47.586Z,64
2017-03-06T05:59:50.289Z,80
2017-03-06T06:01:55.622Z,112
2017-03-06T06:02:57.281Z,128
2017-03-06T06:03:59.072Z,144
2017-03-06T06:05:01.003Z,160
2017-03-06T06:07:09.209Z,184
2017-03-06T06:08:10.707Z,184
2017-03-06T06:09:12.196Z,184
2017-03-06T06:10:14.648Z,180
2017-03-06T06:11:17.553Z,172
2017-03-06T06:12:27.812Z,164
2017-03-06T06:13:30.792Z,160
2017-03-06T06:14:33.786Z,160
2017-03-06T06:15:35.708Z,156
2017-03-06T06:16:53.088Z,152
2017-03-06T06:17:55.910Z,164
2017-03-06T06:18:58.765Z,232
2017-03-06T06:20:00.512Z,320
2017-03-06T06:21:02.495Z,424
2017-03-06T06:22:34.440Z,584
2017-03-06T06:23:36.310Z,636
2017-03-06T06:24:38.310Z,656
2017-03-06T06:25:41.859Z,660
2017-03-06T06:26:44.452Z,660
2017-03-06T06:27:45.886Z,656
2017-03-06T06:28:47.550Z,660
2017-03-06T06:29:49.395Z,680
2017-03-06T06:30:51.262Z,672
2017-03-06T06:31:53.303Z,620
2017-03-06T06:32:55.904Z,568
2017-03-06T06:33:57.318Z,568
2017-03-06T06:34:59.705Z,624
2017-03-06T06:36:01.645Z,684
2017-03-06T06:37:03.411Z,736
2017-03-06T06:38:05.222Z,816
2017-03-06T06:39:09.889Z,928
2017-03-06T06:41:19.503Z,956
2017-03-06T06:42:23.745Z,936
2017-03-06T06:43:25.865Z,936
2017-03-06T06:44:27.866Z,916
2017-03-06T06:45:30.424Z,864
2017-03-06T06:46:33.203Z,800
2017-03-06T06:47:37.342Z,696
2017-03-06T06:50:55.266Z,864
2017-03-06T06:51:56.624Z,972
2017-03-06T06:52:58.560Z,1076
2017-03-06T06:54:00.198Z,1120
2017-03-06T06:55:02.310Z,1020
2017-03-06T06:56:03.806Z,944
2017-03-06T06:57:07.180Z,1020
2017-03-06T06:58:10.736Z,1144
2017-03-06T06:59:15.340Z,1140
2017-03-06T07:00:25.974Z,1108
2017-03-06T07:01:42.714Z,1068
2017-03-06T07:02:44.460Z,1060
2017-03-06T07:04:52.745Z,940
2017-03-06T07:07:00.142Z,804
2017-03-06T07:08:02.513Z,772
2017-03-06T07:09:04.017Z,748
2017-03-06T07:10:06.321Z,700
2017-03-06T07:11:08.007Z,648
2017-03-06T07:12:10.337Z,604
2017-03-06T07:13:12.565Z,556
2017-03-06T07:14:15.332Z,508
2017-03-06T07:15:18.721Z,460
2017-03-06T07:16:21.970Z,424
2017-03-06T07:19:29.030Z,388
2017-03-06T07:20:30.681Z,388
2017-03-06T07:21:34.283Z,400
2017-03-06T07:22:38.076Z,408
2017-03-06T07:23:40.118Z,392
2017-03-06T07:24:42.196Z,444
2017-03-06T07:25:45.003Z,500
2017-03-06T07:26:47.136Z,524
2017-03-06T07:27:49.454Z,552
2017-03-06T07:29:06.378Z,572
2017-03-06T07:31:43.774Z,576
2017-03-06T07:32:48.775Z,624
2017-03-06T07:33:52.488Z,652
2017-03-06T07:34:55.561Z,708
2017-03-06T07:35:59.031Z,728
2017-03-06T07:37:09.587Z,756
2017-03-06T07:38:28.595Z,752
2017-03-06T07:39:33.964Z,672
2017-03-06T07:40:51.060Z,732
2017-03-06T07:41:52.837Z,756
2017-03-06T07:42:57.410Z,792
2017-03-06T07:44:04.420Z,800
2017-03-06T07:45:06.905Z,784
2017-03-06T07:46:08.560Z,792
2017-03-06T07:47:10.858Z,852
2017-03-06T07:48:13.550Z,932
2017-03-06T07:50:23.575Z,1020
2017-03-06T07:51:25.689Z,1064
2017-03-06T07:52:35.405Z,1184
2017-03-06T07:53:37.074Z,1348
2017-03-06T07:54:40.265Z,1660
2017-03-06T07:55:41.854Z,2104
2017-03-06T07:56:44.051Z,2524
2017-03-06T07:57:45.642Z,2820
2017-03-06T07:58:47.701Z,2644
2017-03-06T07:59:49.541Z,2912
2017-03-06T08:00:52.295Z,2980
2017-03-06T08:02:10.159Z,2916
2017-03-06T08:03:12.338Z,3428
2017-03-06T08:04:40.368Z,4844
2017-03-06T08:06:46.138Z,5176
2017-03-06T08:08:07.827Z,5188
2017-03-06T08:09:09.725Z,5152
2017-03-06T08:10:13.112Z,6000
2017-03-06T08:11:15.793Z,6072
2017-03-06T08:12:17.779Z,5748
2017-03-06T08:13:21.088Z,6340
2017-03-06T08:14:27.195Z,7728
2017-03-06T08:15:30.959Z,9132
2017-03-06T08:16:33.677Z,12640
2017-03-06T08:17:48.964Z,19360
2017-03-06T08:19:03.824Z,17184
2017-03-06T08:20:19.639Z,17312
2017-03-06T08:21:22.800Z,18112
2017-03-06T08:22:26.425Z,19072
2017-03-06T08:23:31.157Z,22688
2017-03-06T08:24:34.791Z,18912
2017-03-06T08:25:37.789Z,14948
2017-03-06T08:26:40.706Z,11552
2017-03-06T08:27:43.312Z,9492
2017-03-06T08:28:45.374Z,9368
2017-03-06T08:29:47.701Z,9832
2017-03-06T08:30:49.694Z,9024
2017-03-06T08:31:52.125Z,10152
2017-03-06T08:32:53.987Z,9728
2017-03-06T08:33:55.418Z,9340
2017-03-06T08:34:56.790Z,9780
2017-03-06T08:35:58.921Z,10328
2017-03-06T08:37:00.269Z,10172
2017-03-06T08:38:02.338Z,10472
2017-03-06T08:39:03.849Z,10940
2017-03-06T08:40:06.052Z,10804
2017-03-06T08:41:07.839Z,10384
2017-03-06T08:42:12.422Z,10032
2017-03-06T08:43:14.475Z,9772
2017-03-06T08:44:16.438Z,9848
2017-03-06T08:45:18.049Z,9216
2017-03-06T08:46:20.007Z,9368
2017-03-06T08:47:21.489Z,10044
2017-03-06T08:48:23.012Z,10344
2017-03-06T08:49:24.607Z,10036
2017-03-06T08:50:26.163Z,10548
2017-03-06T08:51:28.168Z,10316
2017-03-06T08:52:30.492Z,9856
2017-03-06T08:53:32.265Z,8824
2017-03-06T08:54:34.805Z,8300
2017-03-06T08:55:36.214Z,7796
2017-03-06T08:56:37.646Z,8860
2017-03-06T08:57:40.709Z,9764
2017-03-06T08:58:42.609Z,10080
2017-03-06T08:59:44.660Z,10772
2017-03-06T09:00:47.153Z,10692
2017-03-06T09:01:48.791Z,10984
2017-03-06T09:02:50.903Z,11572
2017-03-06T09:03:53.096Z,13020
2017-03-06T09:04:55.485Z,12800
2017-03-06T09:05:59.219Z,12756
2017-03-06T09:07:00.719Z,12008
2017-03-06T09:08:02.509Z,11032
2017-03-06T09:09:04.425Z,10624
2017-03-06T09:10:06.722Z,11036
2017-03-06T09:11:09.634Z,11844
2017-03-06T09:12:11.464Z,11972
2017-03-06T09:13:13.029Z,11088
2017-03-06T09:14:14.989Z,9856
2017-03-06T09:15:16.197Z,8508
2017-03-06T09:16:17.548Z,6984
2017-03-06T09:17:19.753Z,6268
2017-03-06T09:18:21.419Z,6520
2017-03-06T09:19:23.236Z,8024
2017-03-06T09:20:37.774Z,10712
2017-03-06T09:21:39.971Z,11240
2017-03-06T09:22:41.488Z,11620
2017-03-06T09:23:42.963Z,11224
2017-03-06T09:24:59.442Z,15172
2017-03-06T09:26:01.259Z,17120
2017-03-06T09:27:02.974Z,12468
2017-03-06T09:28:05.348Z,13548
2017-03-06T09:29:08.231Z,12488
2017-03-06T09:30:10.771Z,10612
2017-03-06T09:31:13.272Z,9352
2017-03-06T09:32:15.102Z,8504
2017-03-06T09:33:16.757Z,7948
2017-03-06T09:34:18.588Z,7860
2017-03-06T09:35:20.259Z,7848
2017-03-06T09:36:21.994Z,8468
2017-03-06T09:37:23.799Z,8944
2017-03-06T09:38:25.418Z,7604
2017-03-06T09:39:27.320Z,8280
2017-03-06T09:40:43.827Z,9668
2017-03-06T09:41:45.785Z,10500
2017-03-06T09:42:48.533Z,10476
2017-03-06T09:43:50.858Z,10408
2017-03-06T09:44:53.205Z,10552
2017-03-06T09:45:55.349Z,12196
2017-03-06T09:46:59.333Z,13472
2017-03-06T09:48:01.369Z,14408
2017-03-06T09:49:03.511Z,14676
2017-03-06T09:50:07.937Z,15192
2017-03-06T09:51:25.907Z,11092
2017-03-06T09:52:27.298Z,9996
2017-03-06T09:53:28.861Z,9872
2017-03-06T09:54:30.342Z,9660
2017-03-06T09:55:31.747Z,9140
2017-03-06T09:56:33.267Z,8836
2017-03-06T09:57:35.171Z,8448
2017-03-06T09:58:37.430Z,7532
2017-03-06T09:59:38.958Z,6796
2017-03-06T10:00:40.502Z,6276
2017-03-06T10:01:42.326Z,5800
2017-03-06T10:02:44.218Z,5652
2017-03-06T10:03:46.984Z,5608
2017-03-06T10:04:48.973Z,5512
2017-03-06T10:05:51.539Z,5212
2017-03-06T10:06:53.654Z,5064
2017-03-06T10:07:55.921Z,5108
2017-03-06T10:08:57.803Z,5200
2017-03-06T10:10:00.292Z,5352
2017-03-06T10:11:02.324Z,5404
2017-03-06T10:12:04.576Z,5524
2017-03-06T10:13:06.450Z,5688
2017-03-06T10:14:08.771Z,5756
2017-03-06T10:15:12.071Z,5672
2017-03-06T10:16:14.244Z,5404
2017-03-06T10:17:16.692Z,5164
2017-03-06T10:18:18.569Z,5004
2017-03-06T10:19:20.344Z,4848
2017-03-06T10:20:22.369Z,4692
2017-03-06T10:21:23.799Z,4596
2017-03-06T10:22:40.546Z,4608
2017-03-06T10:23:42.169Z,4652
2017-03-06T10:24:43.825Z,4588
2017-03-06T10:25:46.007Z,4600
2017-03-06T10:26:48.931Z,4792
2017-03-06T10:27:50.754Z,4968
2017-03-06T10:28:53.331Z,5032
2017-03-06T10:29:55.449Z,4936
2017-03-06T10:30:58.702Z,4768
2017-03-06T10:32:01.616Z,4632
2017-03-06T10:33:04.450Z,4592
2017-03-06T10:34:06.545Z,4620
2017-03-06T10:35:09.671Z,4680
2017-03-06T10:36:11.291Z,4716
2017-03-06T10:37:13.650Z,4652
2017-03-06T10:38:24.072Z,4348
2017-03-06T10:39:27.776Z,3960
2017-03-06T10:40:29.460Z,3544
2017-03-06T10:42:35.051Z,2516
2017-03-06T10:43:39.949Z,2168
2017-03-06T10:44:44.495Z,1996
2017-03-06T10:45:46.715Z,1912
2017-03-06T10:46:49.100Z,1820
2017-03-06T10:47:51.278Z,1668
2017-03-06T10:48:52.939Z,1448
2017-03-06T10:49:54.776Z,1228
2017-03-06T10:50:57.468Z,1000
2017-03-06T10:51:59.411Z,924
2017-03-06T10:53:01.790Z,932
2017-03-06T10:54:03.343Z,960
2017-03-06T10:55:04.973Z,984
2017-03-06T10:56:06.934Z,1020
2017-03-06T10:57:10.990Z,1048
2017-03-06T10:58:13.113Z,1080
2017-03-06T10:59:15.340Z,1112
2017-03-06T11:00:18.494Z,1164
2017-03-06T11:01:20.682Z,1236
2017-03-06T11:02:38.222Z,1332
2017-03-06T11:03:41.329Z,1420
2017-03-06T11:04:43.777Z,1504
2017-03-06T11:05:46.210Z,1588
2017-03-06T11:06:49.495Z,1672
2017-03-06T11:07:52.075Z,1772
2017-03-06T11:08:54.619Z,1864
2017-03-06T11:09:57.538Z,1940
2017-03-06T11:11:01.046Z,2044
2017-03-06T11:12:05.228Z,2172
2017-03-06T11:13:06.798Z,2316
2017-03-06T11:14:08.879Z,2508
2017-03-06T11:15:10.242Z,2804
2017-03-06T11:16:11.753Z,3176
2017-03-06T11:17:13.406Z,3600
2017-03-06T11:18:15.203Z,4012
2017-03-06T11:19:18.930Z,4460
2017-03-06T11:20:21.022Z,4916
2017-03-06T11:21:23.351Z,5448
2017-03-06T11:22:25.088Z,6000
2017-03-06T11:23:27.555Z,6572
2017-03-06T11:24:29.560Z,7396
2017-03-06T11:25:31.863Z,7992
2017-03-06T11:26:34.517Z,8404
2017-03-06T11:27:37.018Z,8536
2017-03-06T11:28:45.835Z,8556
2017-03-06T11:29:48.379Z,8680
2017-03-06T11:30:50.170Z,8892
2017-03-06T11:31:51.714Z,9096
2017-03-06T11:32:53.639Z,9280
2017-03-06T11:34:10.455Z,9496
2017-03-06T11:35:11.803Z,9856
2017-03-06T11:36:13.769Z,9948
2017-03-06T11:37:16.692Z,9584
2017-03-06T11:38:18.252Z,9316
2017-03-06T11:39:20.059Z,9560
2017-03-06T11:40:21.926Z,9700
2017-03-06T11:41:23.535Z,9712
2017-03-06T11:42:26.169Z,9772
2017-03-06T11:43:28.506Z,9840
2017-03-06T11:44:30.176Z,9920
2017-03-06T11:45:31.639Z,9944
2017-03-06T11:46:33.288Z,9960
2017-03-06T11:47:34.774Z,10048
2017-03-06T11:48:36.439Z,10076
2017-03-06T11:49:38.315Z,9680
2017-03-06T11:50:40.046Z,8848
2017-03-06T11:51:41.563Z,7896
2017-03-06T11:52:42.879Z,6944
2017-03-06T11:53:44.259Z,6176
2017-03-06T11:54:45.811Z,5536
2017-03-06T11:55:47.584Z,4980
2017-03-06T11:56:48.922Z,4392
2017-03-06T11:57:50.192Z,3852
2017-03-06T11:58:51.586Z,3392
2017-03-06T11:59:53.191Z,3024
2017-03-06T12:00:56.038Z,2736
2017-03-06T12:01:57.895Z,2532
2017-03-06T12:02:59.650Z,2388
2017-03-06T12:04:02.835Z,2276
2017-03-06T12:05:05.414Z,2224
2017-03-06T12:06:08.708Z,2180
2017-03-06T12:07:14.063Z,2132
2017-03-06T12:08:17.842Z,2096
2017-03-06T12:09:20.489Z,2084
2017-03-06T12:10:22.451Z,2064
2017-03-06T12:11:24.675Z,2060
2017-03-06T12:12:26.310Z,2052
2017-03-06T12:13:28.252Z,2092
2017-03-06T12:14:31.495Z,2220
2017-03-06T12:15:33.580Z,2416
2017-03-06T12:16:35.777Z,2696
2017-03-06T12:17:42.162Z,3000
2017-03-06T12:18:44.388Z,3232
2017-03-06T12:19:46.001Z,3512
2017-03-06T12:20:47.373Z,3868
2017-03-06T12:21:48.859Z,4368
2017-03-06T12:22:50.360Z,4828
2017-03-06T12:23:52.430Z,5264
2017-03-06T12:24:54.261Z,5596
2017-03-06T12:25:55.982Z,5852
2017-03-06T12:26:58.093Z,5856
2017-03-06T12:28:00.311Z,5572
2017-03-06T12:29:02.320Z,5312
2017-03-06T12:30:08.211Z,5124
2017-03-06T12:31:11.082Z,5196
2017-03-06T12:32:13.362Z,5540
2017-03-06T12:33:15.069Z,6160
2017-03-06T12:34:17.193Z,6952
2017-03-06T12:35:19.684Z,7744
2017-03-06T12:36:21.146Z,8420
2017-03-06T12:37:22.860Z,8892
2017-03-06T12:38:24.634Z,9004
2017-03-06T12:39:26.290Z,8876
2017-03-06T12:40:28.493Z,8672
2017-03-06T12:41:30.274Z,8288
2017-03-06T12:42:31.535Z,7840
2017-03-06T12:43:32.851Z,7460
2017-03-06T12:44:34.292Z,7080
2017-03-06T12:45:36.401Z,6680
2017-03-06T12:46:37.670Z,6392
2017-03-06T12:47:39.992Z,6200
2017-03-06T12:48:41.640Z,6072
2017-03-06T12:49:44.580Z,5976
2017-03-06T12:50:46.769Z,5888
2017-03-06T12:51:48.738Z,5888
2017-03-06T12:52:51.202Z,5816
2017-03-06T12:53:53.166Z,5628
2017-03-06T12:54:55.280Z,5380
2017-03-06T12:55:56.855Z,5080
2017-03-06T12:56:58.445Z,4856
2017-03-06T12:58:00.008Z,4568
2017-03-06T12:59:02.872Z,4300
2017-03-06T13:00:04.446Z,4056
2017-03-06T13:01:06.393Z,3920
2017-03-06T13:02:23.755Z,3832
2017-03-06T13:03:26.445Z,3728
2017-03-06T13:04:28.205Z,3420
2017-03-06T13:05:29.817Z,3240
2017-03-06T13:06:32.288Z,3156
2017-03-06T13:07:33.659Z,3076
2017-03-06T13:08:35.159Z,2956
2017-03-06T13:09:36.966Z,2752
2017-03-06T13:10:39.563Z,2624
2017-03-06T13:11:41.483Z,2588
2017-03-06T13:12:44.911Z,2532
2017-03-06T13:13:46.777Z,2492
2017-03-06T13:14:50.995Z,2480
2017-03-06T13:15:52.587Z,2476
2017-03-06T13:16:54.530Z,2452
2017-03-06T13:17:56.347Z,2388
2017-03-06T13:18:58.285Z,2308
2017-03-06T13:20:01.052Z,2260
2017-03-06T13:22:06.793Z,2260
2017-03-06T13:23:08.392Z,2348
2017-03-06T13:24:09.905Z,2388
2017-03-06T13:25:11.391Z,2404
2017-03-06T13:26:12.742Z,2392
2017-03-06T13:27:14.541Z,2392
2017-03-06T13:28:16.289Z,2380
2017-03-06T13:29:17.702Z,2320
2017-03-06T13:30:19.139Z,2252
2017-03-06T13:31:20.450Z,2196
2017-03-06T13:32:22.581Z,2120
2017-03-06T13:33:38.730Z,1996
2017-03-06T13:34:40.373Z,1860
2017-03-06T13:35:41.849Z,1716
2017-03-06T13:36:43.630Z,1576
2017-03-06T13:37:45.289Z,1432
2017-03-06T13:38:47.238Z,1304
2017-03-06T13:39:49.506Z,1192
2017-03-06T13:40:50.963Z,1108
2017-03-06T13:41:53.594Z,1064
2017-03-06T13:43:09.899Z,1028
2017-03-06T13:44:12.020Z,988
2017-03-06T13:45:13.884Z,960
2017-03-06T13:46:15.828Z,960
2017-03-06T13:47:17.147Z,964
2017-03-06T13:48:18.829Z,972
2017-03-06T13:49:20.929Z,984
2017-03-06T13:50:22.236Z,1004
2017-03-06T13:51:23.741Z,1024
2017-03-06T13:52:25.624Z,1032
2017-03-06T13:53:27.630Z,1012
2017-03-06T13:54:29.389Z,976
2017-03-06T13:55:30.989Z,944
2017-03-06T13:56:32.879Z,936
2017-03-06T13:57:34.535Z,948
2017-03-06T13:58:36.278Z,968
2017-03-06T13:59:37.783Z,1000
2017-03-06T14:00:41.408Z,1032
2017-03-06T14:01:45.726Z,1048
2017-03-06T14:02:48.225Z,1056
2017-03-06T14:04:05.252Z,1072
2017-03-06T14:05:11.848Z,1076
2017-03-06T14:06:15.077Z,1100
2017-03-06T14:07:18.953Z,1128
2017-03-06T14:08:23.355Z,1144
2017-03-06T14:09:25.064Z,1152
2017-03-06T14:10:26.390Z,1160
2017-03-06T14:11:27.792Z,1160
2017-03-06T14:12:29.511Z,1156
2017-03-06T14:13:31.165Z,1160
2017-03-06T14:14:32.757Z,1156
2017-03-06T14:15:34.953Z,1160
2017-03-06T14:16:36.533Z,1164
2017-03-06T14:17:38.026Z,1172
2017-03-06T14:18:39.523Z,1188
2017-03-06T14:19:40.814Z,1208
2017-03-06T14:20:42.161Z,1232
2017-03-06T14:21:43.753Z,1272
2017-03-06T14:22:45.368Z,1312
2017-03-06T14:23:46.968Z,1356
2017-03-06T14:24:48.426Z,1408
2017-03-06T14:25:49.996Z,1468
2017-03-06T14:26:52.057Z,1532
2017-03-06T14:27:53.768Z,1612
2017-03-06T14:28:55.315Z,1708
2017-03-06T14:29:56.784Z,1816
2017-03-06T14:30:58.415Z,1936
2017-03-06T14:31:59.790Z,2056
2017-03-06T14:33:01.180Z,2168
2017-03-06T14:34:02.686Z,2264
2017-03-06T14:35:04.089Z,2340
2017-03-06T14:36:05.532Z,2400
2017-03-06T14:37:06.975Z,2456
2017-03-06T14:38:08.505Z,2512
2017-03-06T14:39:09.947Z,2556
2017-03-06T14:40:11.463Z,2576
2017-03-06T14:41:13.374Z,2580
2017-03-06T14:42:14.984Z,2552
2017-03-06T14:43:16.459Z,2540
2017-03-06T14:44:17.961Z,2600
2017-03-06T14:45:19.591Z,2740
2017-03-06T14:46:21.001Z,2928
2017-03-06T14:47:22.743Z,3136
2017-03-06T14:48:24.090Z,3332
2017-03-06T14:49:25.654Z,3464
2017-03-06T14:50:27.168Z,3552
2017-03-06T14:51:28.806Z,3620